Weather observations for the past three days for
Grand Prairie, Grand Prairie Municipal Airport
Imperial (Metric)
Date Time (cdt) Wind (mph) Vis. (mi.) Weather Sky Cond. Temperature (ºF) Relative Humidity Wind Chill (°F) Heat Index (°F) Pressure Precipitation (in)
Air Dwpt 6 hour altimeter (in) sea level (mb) 1 hr 3 hr 6 hr
Max. Min.
04 02:15 S 9 10.00 Fair CLR 65.1 48.2 54% 29.98 0.0
04 01:55 S 7 10.00 Fair CLR 65.3 48.6 55% 29.98 0.0
04 01:15 S 9 10.00 Fair CLR 65.8 49.1 55% 29.99 0.0
04 00:55 S 7 10.00 Fair CLR 66.2 49.1 78.3 66.2 54% 30 0.0
04 00:35 S 6 10.00 Fair CLR 66.4 49.3 54% 30.01 0.0
04 00:15 S 6 10.00 Fair CLR 66.4 49.3 54% 30.01 0.0
03 23:55 S 5 10.00 Fair CLR 67.1 49.1 53% 30.02 0.0
03 23:35 S 5 10.00 Fair CLR 67.5 49.1 52% 30.02 0.0
03 23:15 S 5 10.00 Fair CLR 68 48.4 50% 30.03 0.0
03 22:55 S 7 10.00 Fair CLR 68.9 47.5 47% 30.02 0.0
03 22:35 S 7 10.00 Fair CLR 69.4 46.9 45% 30.02 0.0
03 22:15 S 7 10.00 Fair CLR 69.8 47.1 45% 30.02 0.0
03 21:55 S 6 10.00 Fair CLR 70 47.3 45% 30.02 0.0
03 21:35 S 8 10.00 Fair CLR 70.7 47.3 43% 30.01 0.0
03 21:15 S 7 10.00 Fair CLR 71.2 46.9 42% 30.02 0.0
03 20:55 S 8 10.00 Fair CLR 72.5 46.4 39% 30.01 0.0
03 20:35 S 8 10.00 Fair CLR 73.2 45.1 37% 30 0.0
03 20:15 S 7 10.00 Fair CLR 74.1 43.7 34% 30 0.0
03 19:55 S 8 10.00 Fair CLR 75.6 42.6 31% 77 30 0.0
03 19:35 S 8 10.00 Fair CLR 76.5 43 30% 77 30 0.0
03 19:15 S 10 G 16 10.00 Fair CLR 77.9 42.3 28% 78 30.01 0.0
03 18:55 S 8 10.00 Fair CLR 78.3 42.8 81.7 78.3 28% 78 30.01 0.0
03 18:35 S 12 G 17 10.00 Fair CLR 79 42.8 28% 78 30.02 0.0
03 18:15 S 10 10.00 Fair CLR 79.5 43.9 28% 79 30.02 0.0
03 17:55 S 12 G 16 10.00 Partly Cloudy SCT080 79.9 43.3 27% 79 30.02 0.0
03 17:35 S 9 10.00 Fair CLR 80.6 43.7 27% 79 30.02 0.0
03 17:15 S 9 G 17 10.00 Fair CLR 80.2 43 27% 79 30.03 0.0
03 16:55 S 8 10.00 Fair CLR 80.4 43 27% 79 30.04 0.0
03 16:35 SW 13 G 17 10.00 Partly Cloudy SCT080 80.2 42.8 27% 79 30.04 0.0
03 16:15 SW 9 G 22 10.00 Partly Cloudy SCT080 81.5 45.1 28% 80 30.05 0.0
03 15:55 SW 12 G 17 10.00 Fair CLR 81.5 43.5 26% 80 30.06 0.0
03 15:35 Calm 10.00 Fair CLR 80.8 42.4 26% 79 30.07 0.0
03 15:15 SW 9 10.00 Fair CLR 81.3 41.2 24% 80 30.08 0.0
03 14:55 S 13 G 17 10.00 Fair CLR 81.3 44.2 27% 80 30.09 0.0
03 14:35 SW 13 G 17 10.00 Fair CLR 80.6 42.3 26% 79 30.1 0.0
03 14:15 S 10 G 17 10.00 Partly Cloudy SCT080 80.8 42.8 26% 79 30.11 0.0
03 13:55 S 8 G 17 10.00 Partly Cloudy SCT080 79.9 45 29% 79 30.12 0.0
03 13:35 S 7 10.00 Partly Cloudy SCT070 SCT080 79.7 43.9 28% 79 30.13 0.0
03 13:15 SW 8 10.00 Fair CLR 79.7 45.1 30% 79 30.14 0.0
03 12:55 SW 12 G 17 10.00 Fair CLR 78.8 44.6 79 54.5 30% 79 30.15 0.0
03 12:35 SW 8 10.00 Fair CLR 78.6 46.6 32% 79 30.16 0.0
03 12:15 SW 8 10.00 Fair CLR 77.4 46.4 34% 78 30.17 0.0
03 11:55 SW 9 10.00 Fair CLR 76.6 46.4 34% 78 30.18 0.0
03 11:35 SW 13 10.00 Fair CLR 76.3 46.2 35% 78 30.19 0.0
03 11:15 SW 9 10.00 Fair CLR 75.4 46.6 36% 77 30.19 0.0
03 10:55 SW 10 10.00 Fair CLR 74.1 45.7 36% 30.19 0.0
03 10:35 SW 9 10.00 Fair CLR 73.4 46 38% 30.19 0.0
03 10:15 SW 9 10.00 Fair CLR 72.3 46.6 40% 30.19 0.0
03 09:55 SW 10 10.00 Fair CLR 71.1 48.2 44% 30.19 0.0
03 09:35 SW 6 10.00 Fair CLR 68.7 48.6 49% 30.19 0.0
03 09:15 SW 6 10.00 Fair CLR 66 48.9 54% 30.19 0.0
03 08:55 SW 3 10.00 Fair CLR 63.3 49.5 61% 30.19 0.0
03 08:35 S 6 10.00 Fair CLR 61 49.1 65% 30.18 0.0
03 08:15 SW 6 10.00 Fair CLR 59.2 49.1 69% 30.18 0.0
03 07:55 Calm 10.00 Fair CLR 57.4 48.6 73% 30.17 0.0
03 07:35 Calm 10.00 Fair CLR 56.3 48.2 74% 30.17 0.0
03 07:15 Calm 10.00 Fair CLR 55.4 48.2 77% 30.16 0.0
03 06:55 Calm 10.00 Fair CLR 54.5 47.5 61.9 54 77% 30.16 0.0
03 06:35 Calm 10.00 Fair CLR 54 47.5 79% 30.16 0.0
03 06:15 Calm 10.00 Fair CLR 54.3 47.5 78% 30.15 0.0
03 05:55 Calm 10.00 Fair CLR 54.5 47.5 77% 30.15 0.0
03 05:35 Calm 10.00 Fair CLR 54.9 47.7 77% 30.15 0.0
03 05:15 Calm 10.00 Fair CLR 55.4 47.7 75% 30.15 0.0
03 04:55 S 3 10.00 Fair CLR 55.4 47.7 75% 30.15 0.0
03 04:35 S 3 10.00 Fair CLR 55.9 47.7 74% 30.15 0.0
03 04:15 SW 3 10.00 Fair CLR 56.7 47.7 72% 30.14 0.0
03 03:55 SW 3 10.00 Fair CLR 56.8 47.5 71% 30.14 0.0
03 03:35 Calm 10.00 Fair CLR 57.2 47.5 70% 30.14 0.0
03 03:15 S 3 10.00 Fair CLR 57.6 47.3 69% 30.14 0.0
03 02:55 SW 3 10.00 Fair CLR 58.3 47.3 67% 30.14 0.0
03 02:35 S 3 10.00 Fair CLR 59 47.1 65% 30.15 0.0
03 02:15 S 3 10.00 Fair CLR 59.7 46.9 63% 30.15 0.0
03 01:55 S 5 10.00 Fair CLR 60.3 46.9 62% 30.15 0.0
03 01:35 S 5 10.00 Fair CLR 60.3 46.8 61% 30.15 0.0
03 01:15 S 3 10.00 Fair CLR 61.5 46.8 59% 30.15 0.0
03 00:55 S 5 10.00 Fair CLR 61.9 46.8 76.1 61.9 58% 30.15 0.0
03 00:35 S 3 10.00 Fair CLR 62.2 46.9 57% 30.15 0.0
03 00:15 SW 5 10.00 Fair CLR 62.8 46.8 56% 30.14 0.0
02 23:55 S 3 10.00 Fair CLR 63 47.5 57% 30.14 0.0
02 23:35 S 3 10.00 Fair CLR 63.1 47.3 56% 30.14 0.0
02 23:15 S 3 10.00 Fair CLR 64.9 45.9 50% 30.14 0.0
02 22:55 S 3 10.00 Fair CLR 65.5 45.9 49% 30.14 0.0
02 22:35 S 3 10.00 Fair CLR 66.6 46 48% 30.14 0.0
02 22:15 Calm 10.00 Fair CLR 66.9 46.9 49% 30.13 0.0
02 21:55 S 3 10.00 Fair CLR 68.2 43.3 41% 30.13 0.0
02 21:35 Calm 10.00 Fair CLR 68 42.8 40% 30.12 0.0
02 21:15 Calm 10.00 Fair CLR 69.8 41.2 35% 30.12 0.0
02 20:55 Calm 10.00 Fair CLR 70.5 40.3 33% 30.11 0.0
02 20:35 Calm 10.00 Fair CLR 71.8 39.9 32% 30.1 0.0
02 20:15 Calm 10.00 Fair CLR 74.3 38.8 28% 30.1 0.0
02 19:55 W 3 10.00 Fair CLR 75 38.3 27% 77 30.1 0.0
02 19:35 W 3 10.00 Fair CLR 75.6 38.3 26% 77 30.1 0.0
02 19:15 W 3 10.00 Fair CLR 75.2 39.4 28% 77 30.1 0.0
02 18:55 NW 3 10.00 Fair CLR 75.2 39.6 76.8 71.8 28% 77 30.1 0.0
02 18:35 Calm 10.00 Partly Cloudy SCT080 74.8 40.5 29% 30.1 0.0
02 18:15 SW 3 10.00 Partly Cloudy SCT080 75.4 38.7 27% 77 30.1 0.0
02 17:55 W 7 10.00 Partly Cloudy SCT090 76.6 38.5 25% 77 30.1 0.0
02 17:35 NW 6 10.00 Partly Cloudy SCT085 76.6 38.8 26% 77 30.11 0.0
02 17:15 N 3 10.00 Partly Cloudy SCT085 76.1 39.2 27% 77 30.11 0.0
02 16:55 N 6 10.00 Fair CLR 75.7 39.6 27% 77 30.11 0.0
02 16:35 Calm 10.00 Fair CLR 75 38.5 27% 77 30.12 0.0
02 16:15 NE 6 10.00 Fair CLR 75.2 38.5 27% 77 30.13 0.0
02 15:55 N 3 10.00 Fair CLR 76.1 39.9 27% 77 30.14 0.0
02 15:35 W 5 10.00 Fair CLR 75.7 37.4 25% 77 30.15 0.0
02 15:15 E 3 10.00 Fair CLR 74.8 39.2 28% 30.15 0.0
02 14:55 N 5 10.00 Fair CLR 75.4 38.7 27% 77 30.15 0.0
02 14:35 NE 6 10.00 Fair CLR 73.8 38.3 28% 30.16 0.0
02 14:15 Calm 10.00 Fair CLR 74.5 39.9 29% 30.17 0.0
02 13:55 Calm 10.00 Fair CLR 73.8 38.3 28% 30.17 0.0
02 13:35 NW 3 10.00 Fair CLR 73.2 39.2 29% 30.18 0.0
02 13:15 W 8 10.00 Fair CLR 72.9 37.4 28% 30.19 0.0
02 12:55 NE 3 10.00 Fair CLR 71.8 37 71.8 50.9 28% 30.2 0.0
02 12:35 Calm 10.00 Fair CLR 71.2 38.1 30% 30.2 0.0
02 12:15 Calm 10.00 Fair CLR 70.5 38.5 31% 30.21 0.0
02 11:55 NE 3 10.00 Fair CLR 70 40.6 35% 30.21 0.0
02 11:35 N 6 10.00 Fair CLR 69.3 44.1 40% 30.21 0.0
02 11:15 W 3 10.00 Fair CLR 68.7 45 43% 30.21 0.0
02 10:55 Calm 10.00 Fair CLR 66.6 44.1 44% 30.21 0.0
02 10:35 N 5 10.00 Fair CLR 66.6 44.6 45% 30.21 0.0
02 10:15 N 3 10.00 Fair CLR 66 47.5 51% 30.21 0.0
02 09:55 N 3 10.00 Fair CLR 64.6 48.4 56% 30.2 0.0
02 09:35 Calm 10.00 Fair CLR 63 48.6 60% 30.2 0.0
02 09:15 NW 3 10.00 Fair CLR 61.2 48.6 63% 30.2 0.0
02 08:55 Calm 10.00 Fair CLR 60.1 49.3 68% 30.2 0.0
02 08:35 W 5 10.00 Fair CLR 58.3 48.7 71% 30.19 0.0
02 08:15 Calm 10.00 Fair CLR 57.2 48.6 73% 30.19 0.0
02 07:55 Calm 10.00 Fair CLR 54.5 49.1 82% 30.18 0.0
02 07:35 Calm 10.00 Fair CLR 53.2 48.2 83% 30.17 0.0
02 07:15 Calm 10.00 Fair CLR 50.9 50.7 99% 30.17 0.0
02 06:55 Calm 10.00 Fair CLR 51.6 51.3 56.5 49.3 99% 30.15 0.0
02 06:35 Calm 10.00 Fair CLR 49.8 49.8 100% 30.14 0.0
02 06:15 Calm 10.00 Fair CLR 50.2 45.9 85% 30.13 0.0
02 05:55 Calm 10.00 Fair CLR 50.9 46.2 84% 30.13 0.0
02 05:35 Calm 10.00 Fair CLR 52 46 80% 30.12 0.0
02 05:15 Calm 10.00 Fair CLR 53.8 46.6 77% 30.13 0.0
02 04:55 Calm 10.00 Fair CLR 54 46.6 76% 30.12 0.0
02 04:35 Calm 10.00 Fair CLR 54.5 46.6 75% 30.11 0.0
02 04:15 Calm 10.00 Fair CLR 55 46.4 73% 30.11 0.0
02 03:55 Calm 10.00 Fair CLR 55.4 46.4 72% 30.11 0.0
02 03:35 Calm 10.00 Fair CLR 55.4 46.8 73% 30.11 0.0
02 03:15 Calm 10.00 Fair CLR 55.4 47.3 74% 30.11 0.0
02 02:55 Calm 10.00 Fair CLR 55.6 46.4 71% 30.11 0.0
02 02:35 Calm 10.00 Fair CLR 55.9 46 70% 30.11 0.0
02 02:15 Calm 10.00 Fair CLR 56.3 46.2 69% 30.11 0.0
02 01:55 Calm 10.00 Fair CLR 54.5 47.1 76% 30.11 0.0
02 01:35 Calm 10.00 Fair CLR 55.4 47.3 74% 30.11 0.0
02 01:15 Calm 10.00 Fair CLR 55.6 47.3 74% 30.12 0.0
02 00:55 Calm 10.00 Fair CLR 55.6 47.1 61.9 55.6 73% 30.12 0.0
02 00:35 Calm 10.00 Fair CLR 56.3 47.1 71% 30.12 0.0
02 00:15 Calm 10.00 Fair CLR 57 46.9 69% 30.12 0.0
01 23:55 Calm 10.00 Fair CLR 57.2 46.6 68% 30.12 0.0
01 23:35 Calm 10.00 Partly Cloudy SCT060 SCT075 57.6 46.8 67% 30.11 0.0
01 23:15 Calm 10.00 Fair CLR 57.6 46.4 67% 30.11 0.0
01 22:55 Calm 10.00 Partly Cloudy SCT060 SCT110 58.3 46.6 65% 30.11 0.0
01 22:35 Calm 10.00 Partly Cloudy SCT050 SCT080 SCT110 58.3 46.6 65% 30.11 0.0
01 22:15 Calm 10.00 Partly Cloudy SCT080 SCT110 59.2 46.6 63% 30.1 0.0
01 21:55 E 3 10.00 Mostly Cloudy BKN100 59.2 46.8 64% 30.1 0.0
01 21:35 Calm 10.00 Overcast OVC100 59.9 46.8 62% 30.09 0.0
01 21:15 E 3 10.00 Overcast OVC100 59.9 46.6 62% 30.09 0.0
01 20:55 E 3 10.00 Overcast OVC100 59.9 46.8 62% 30.07 0.0
01 20:35 E 3 10.00 Overcast OVC100 59.7 46.8 62% 30.06 0.0
01 20:15 E 5 10.00 Overcast OVC100 59.9 46.9 62% 30.05 0.0
01 19:55 E 5 10.00 Overcast OVC100 60.3 46.9 62% 30.04 0.0
01 19:35 E 6 10.00 Mostly Cloudy BKN110 61.3 46.9 59% 30.03 0.0
01 19:15 E 7 10.00 Mostly Cloudy BKN090 BKN120 61.7 45.7 56% 30.03 0.0
01 18:55 E 7 10.00 Overcast BKN090 OVC110 61.9 46.4 64.4 61.9 57% 30.03 0.0
01 18:35 E 6 10.00 Overcast SCT075 OVC100 63.1 45.5 53% 30.01 0.0
01 18:15 E 8 10.00 Overcast SCT075 OVC090 63.5 44.6 50% 30 0.0
01 17:55 NE 10 10.00 Overcast OVC090 63.5 44.8 51% 30 0.0
01 17:35 NE 9 10.00 Overcast OVC090 63.5 44.4 50% 30 0.0
01 17:15 NE 7 10.00 Overcast SCT039 SCT075 OVC090 63.5 45.3 52% 30 0.0
01 16:55 NE 10 10.00 Overcast SCT038 SCT044 OVC090 63.5 45 51% 30 0.0
01 16:35 NE 9 10.00 Overcast BKN100 OVC120 63.5 44.4 50% 30 0.0
01 16:15 NE 10 10.00 Mostly Cloudy SCT085 BKN110 63.9 43.5 48% 30 0.0
01 15:55 NE 13 G 21 10.00 Mostly Cloudy BKN075 BKN110 64 41.9 45% 30 0.0
01 15:35 NE 13 G 20 10.00 Overcast BKN070 OVC085 64 41 43% 30.02 0.0
01 15:15 NE 10 10.00 Overcast OVC070 63.7 43 47% 30.02 0.0
01 14:55 E 13 10.00 Overcast BKN070 OVC110 63.5 41.2 44% 30.03 0.0
01 14:35 NE 16 10.00 Overcast SCT060 BKN070 OVC110 63.1 41.2 45% 30 0.0
01 14:15 NE 10 G 16 10.00 Overcast OVC060 62.6 41.7 47% 30 0.0
01 13:55 E 12 G 17 10.00 Overcast OVC060 62.8 40.5 44% 30 0.0
01 13:35 NE 14 10.00 Overcast OVC060 62.6 38.8 42% 30.01 0.0
01 13:15 E 15 G 21 10.00 Overcast OVC060 63.5 40.1 42% 30.01 0.0
01 12:55 E 13 G 18 10.00 Overcast OVC060 63.9 42.6 63.9 58.1 46% 30.03 0.0
01 12:35 NE 14 G 18 10.00 Mostly Cloudy BKN060 62.6 42.6 48% 30.03 0.0
01 12:15 NE 13 G 16 10.00 Partly Cloudy SCT060 62.8 43.5 50% 30.03 0.0
01 11:55 NE 14 G 18 10.00 Mostly Cloudy BKN060 62.1 43 50% 30.05 0.0
01 11:35 NE 12 10.00 Mostly Cloudy BKN060 BKN120 60.4 42.8 52% 30.05 0.0
01 11:15 NE 9 10.00 Mostly Cloudy SCT060 BKN120 60.3 44.2 56% 30.05 0.0
01 10:55 NE 12 10.00 Mostly Cloudy SCT070 SCT095 BKN120 59.9 45.5 59% 30.05 0.0
01 10:35 NE 10 10.00 Overcast SCT060 SCT070 OVC100 59.4 44.8 59% 30.05 0.0
01 10:15 NE 12 10.00 Partly Cloudy SCT100 59.2 45.7 61% 30.06 0.0
01 09:55 NE 9 10.00 Mostly Cloudy SCT055 SCT070 BKN090 59.4 48 66% 30.03 0.0
01 09:35 NE 12 10.00 Overcast OVC055 58.3 48.2 69% 30.05 0.0
01 09:15 NE 7 10.00 Overcast OVC055 58.3 50 74% 30.05 0.0
01 08:55 NE 8 10.00 Overcast SCT055 OVC100 58.3 50.9 77% 30.05 0.0
01 08:35 NE 8 10.00 Overcast SCT050 OVC100 58.5 51.4 78% 30.03 0.0
01 08:15 NE 6 10.00 Overcast SCT022 BKN050 OVC100 58.5 51.4 78% 30.03 0.0
01 07:55 NE 3 10.00 Overcast SCT019 SCT025 OVC050 58.6 51.3 77% 30.05 0.0
01 07:35 NE 3 10.00 Overcast SCT019 OVC050 58.5 51.1 77% 30.04 0.0
01 07:15 NE 6 10.00 Mostly Cloudy BKN050 58.5 51.1 77% 30.02 0.0
01 06:55 NE 6 10.00 Partly Cloudy SCT050 58.1 51.1 61 58.1 78% 30 0.0
01 06:35 N 7 10.00 Partly Cloudy SCT050 SCT110 58.1 50.9 77% 30 0.0
01 06:15 NE 5 10.00 Mostly Cloudy SCT050 BKN110 58.1 50.4 76% 30 0.0
01 05:55 NE 5 10.00 Overcast OVC050 58.5 50.9 76% 30 0.0
01 05:35 N 3 10.00 Overcast OVC046 59 50.9 75% 30.01 0.0
01 05:15 NE 3 10.00 Overcast OVC046 58.6 50.9 76% 30 0.0
01 04:55 E 5 10.00 Overcast OVC044 59 50.2 73% 30.01 0.0
01 04:35 E 6 10.00 Overcast SCT038 OVC044 59 50.4 73% 30.01 0.0
01 04:15 E 6 10.00 Overcast OVC036 58.8 50.4 74% 30 0.0
01 03:55 NE 8 10.00 Overcast OVC034 59 50.2 73% 30 0.0
01 03:35 NE 10 G 16 10.00 Overcast OVC032 58.6 50.4 74% 29.98 0.0
01 03:15 NE 13 G 16 10.00 Overcast OVC032 59.4 50.5 73% 29.98 0.0
01 02:55 NE 6 10.00 Overcast OVC030 59.9 50.5 71% 30 0.0
Date Time (cdt) Wind (mph) Vis. (mi.) Weather Sky Cond. Air Dwpt Max. Min. Relative Humidity Wind Chill (°F) Heat Index (°F) altimeter (in) sea level (mb) 1 hr 3 hr 6 hr
6 hour
Temperature (ºF) Pressure Precipitation (in)